createdAt,value
2023-11-30T00:00:27.571Z,13.07
2023-11-30T00:02:54.489Z,14.93
2023-11-30T00:05:23.418Z,13.50
2023-11-30T00:07:50.662Z,13.02
2023-11-30T00:10:17.634Z,14.50
2023-11-30T00:12:44.655Z,12.52
2023-11-30T00:15:11.634Z,11.70
2023-11-30T00:17:38.476Z,12.35
2023-11-30T00:20:06.026Z,13.75
2023-11-30T00:22:32.855Z,11.00
2023-11-30T00:24:59.823Z,11.73
2023-11-30T00:27:26.680Z,15.63
2023-11-30T00:29:53.666Z,12.15
2023-11-30T00:32:20.561Z,12.20
2023-11-30T00:34:47.492Z,11.95
2023-11-30T00:37:14.332Z,15.65
2023-11-30T00:39:43.359Z,16.23
2023-11-30T00:42:10.368Z,11.98
2023-11-30T00:44:37.270Z,12.88
2023-11-30T00:47:04.322Z,11.93
2023-11-30T00:49:31.163Z,9.93
2023-11-30T00:51:58.127Z,11.75
2023-11-30T00:54:24.892Z,9.43
2023-11-30T00:56:51.816Z,10.27
2023-11-30T00:59:18.715Z,12.57
2023-11-30T01:01:45.602Z,10.95
2023-11-30T01:04:12.425Z,13.98
2023-11-30T01:06:39.345Z,12.65
2023-11-30T01:09:06.194Z,10.40
2023-11-30T01:11:33.122Z,11.10
2023-11-30T01:13:59.899Z,10.38
2023-11-30T01:16:26.787Z,13.10
2023-11-30T01:18:53.792Z,12.18
2023-11-30T01:21:21.389Z,10.35
2023-11-30T01:23:48.307Z,9.85
2023-11-30T01:26:15.324Z,8.15
2023-11-30T01:28:42.262Z,10.63
2023-11-30T01:31:09.131Z,11.10
2023-11-30T01:33:37.810Z,10.85
2023-11-30T01:36:05.465Z,10.25
2023-11-30T01:38:32.771Z,9.85
2023-11-30T01:40:59.559Z,13.02
2023-11-30T01:43:26.842Z,10.70
2023-11-30T01:46:02.637Z,13.65
2023-11-30T01:48:31.061Z,11.38
2023-11-30T01:50:57.925Z,8.85
2023-11-30T01:53:24.955Z,10.40
2023-11-30T01:55:52.007Z,12.25
2023-11-30T01:58:19.174Z,9.45
2023-11-30T02:00:46.172Z,12.27
2023-11-30T02:03:13.715Z,9.82
2023-11-30T02:05:40.668Z,12.35
2023-11-30T02:08:17.301Z,12.88
2023-11-30T02:10:44.630Z,12.48
2023-11-30T02:13:11.313Z,12.32
2023-11-30T02:15:37.948Z,13.80
2023-11-30T02:18:04.966Z,9.77
2023-11-30T02:20:32.162Z,12.48
2023-11-30T02:22:58.838Z,15.10
2023-11-30T02:25:25.610Z,13.15
2023-11-30T02:27:52.448Z,11.75
2023-11-30T02:30:19.304Z,11.35
2023-11-30T02:32:46.112Z,11.55
2023-11-30T02:35:12.895Z,13.65
2023-11-30T02:37:39.606Z,11.40
2023-11-30T02:40:07.054Z,9.45
2023-11-30T02:42:33.736Z,10.38
2023-11-30T02:45:00.502Z,9.63
2023-11-30T02:47:27.371Z,9.52
2023-11-30T02:49:54.236Z,9.15
2023-11-30T02:52:21.011Z,9.07
2023-11-30T02:54:47.925Z,11.82
2023-11-30T02:57:15.177Z,10.20
2023-11-30T02:59:41.890Z,9.10
2023-11-30T03:02:09.204Z,9.98
2023-11-30T03:04:36.084Z,7.43
2023-11-30T03:07:02.817Z,8.82
2023-11-30T03:09:31.052Z,10.27
2023-11-30T03:11:57.990Z,9.68
2023-11-30T03:14:24.665Z,10.93
2023-11-30T03:16:51.430Z,8.43
2023-11-30T03:19:18.187Z,10.63
2023-11-30T03:21:45.094Z,7.88
2023-11-30T03:24:12.417Z,9.55
2023-11-30T03:26:39.335Z,8.88
2023-11-30T03:29:06.143Z,8.90
2023-11-30T03:31:32.893Z,9.15
2023-11-30T03:33:59.751Z,10.05
2023-11-30T03:36:26.633Z,7.65
2023-11-30T03:38:55.358Z,10.00
2023-11-30T03:41:25.069Z,12.45
2023-11-30T03:43:53.040Z,8.93
2023-11-30T03:46:22.655Z,11.18
2023-11-30T03:48:49.678Z,12.35
2023-11-30T03:51:16.498Z,11.02
2023-11-30T03:53:43.271Z,10.77
2023-11-30T03:56:10.209Z,9.95
2023-11-30T03:58:36.912Z,10.70
2023-11-30T04:01:03.689Z,10.85
2023-11-30T04:03:30.560Z,11.18
2023-11-30T04:05:57.321Z,10.98
2023-11-30T04:08:24.046Z,11.27
2023-11-30T04:10:50.786Z,10.18
2023-11-30T04:13:17.733Z,9.57
2023-11-30T04:15:44.595Z,12.70
2023-11-30T04:18:11.526Z,9.35
2023-11-30T04:20:38.344Z,11.30
2023-11-30T04:23:05.101Z,8.73
2023-11-30T04:25:31.727Z,8.70
2023-11-30T04:27:58.479Z,9.07
2023-11-30T04:30:25.244Z,10.05
2023-11-30T04:32:52.034Z,12.18
2023-11-30T04:35:18.754Z,11.82
2023-11-30T04:37:45.456Z,8.48
2023-11-30T04:40:13.714Z,11.52
2023-11-30T04:42:40.815Z,11.38
2023-11-30T04:45:07.997Z,12.02
2023-11-30T04:47:34.712Z,11.25
2023-11-30T04:50:01.443Z,10.07
2023-11-30T04:52:28.112Z,10.60
2023-11-30T04:54:54.772Z,10.85
2023-11-30T04:57:21.550Z,11.05
2023-11-30T04:59:48.292Z,10.82
2023-11-30T05:02:15.257Z,10.85
2023-11-30T05:04:42.290Z,10.48
2023-11-30T05:07:09.098Z,12.50
2023-11-30T05:09:35.823Z,9.57
2023-11-30T05:12:02.860Z,7.60
2023-11-30T05:14:29.594Z,8.98
2023-11-30T05:16:56.488Z,11.65
2023-11-30T05:19:23.461Z,12.70
2023-11-30T05:21:50.155Z,9.95
2023-11-30T05:24:18.347Z,9.98
2023-11-30T05:26:45.108Z,8.73
2023-11-30T05:29:11.793Z,9.52
2023-11-30T05:31:38.604Z,8.02
2023-11-30T05:34:05.356Z,10.43
2023-11-30T05:36:32.331Z,9.45
2023-11-30T05:39:00.036Z,8.40
2023-11-30T05:41:26.808Z,9.23
2023-11-30T05:43:53.749Z,9.80
2023-11-30T05:46:21.035Z,9.88
2023-11-30T05:48:47.980Z,10.57
2023-11-30T05:51:15.125Z,9.20
2023-11-30T05:53:42.074Z,11.25
2023-11-30T05:56:09.250Z,7.95
2023-11-30T05:58:35.918Z,9.95
2023-11-30T06:01:03.149Z,9.27
2023-11-30T06:03:29.926Z,8.55
2023-11-30T06:05:56.892Z,11.13
2023-11-30T06:08:25.973Z,12.57
2023-11-30T06:10:53.046Z,9.23
2023-11-30T06:13:19.813Z,12.55
2023-11-30T06:15:46.831Z,11.85
2023-11-30T06:18:13.697Z,10.15
2023-11-30T06:20:40.388Z,11.02
2023-11-30T06:23:07.186Z,12.32
2023-11-30T06:25:33.914Z,10.98
2023-11-30T06:28:00.673Z,10.38
2023-11-30T06:30:27.384Z,14.13
2023-11-30T06:32:54.102Z,13.43
2023-11-30T06:35:21.966Z,19.67
2023-11-30T06:37:48.842Z,16.13
2023-11-30T06:40:15.697Z,15.73
2023-11-30T06:42:42.331Z,16.17
2023-11-30T06:45:09.469Z,14.70
2023-11-30T06:47:36.217Z,18.13
2023-11-30T06:50:03.031Z,19.75
2023-11-30T06:52:30.344Z,14.75
2023-11-30T06:54:57.110Z,18.10
2023-11-30T06:57:23.877Z,16.33
2023-11-30T06:59:50.681Z,20.00
2023-11-30T07:02:17.472Z,17.35
2023-11-30T07:04:44.285Z,16.42
2023-11-30T07:07:17.325Z,14.43
2023-11-30T07:09:50.898Z,17.00
2023-11-30T07:12:17.843Z,17.38
2023-11-30T07:14:50.887Z,16.90
2023-11-30T07:17:18.633Z,16.45
2023-11-30T07:19:45.468Z,16.27
2023-11-30T07:22:12.784Z,14.88
2023-11-30T07:24:39.541Z,16.05
2023-11-30T07:27:06.298Z,16.23
2023-11-30T07:29:34.687Z,17.20
2023-11-30T07:32:01.396Z,15.43
2023-11-30T07:34:28.079Z,12.35
2023-11-30T07:36:54.733Z,13.90
2023-11-30T07:39:22.287Z,11.15
2023-11-30T07:41:50.195Z,14.90
2023-11-30T07:44:17.852Z,13.25
2023-11-30T07:46:44.638Z,15.10
2023-11-30T07:49:12.450Z,13.48
2023-11-30T07:51:39.277Z,12.55
2023-11-30T07:54:07.040Z,10.15
2023-11-30T07:56:34.174Z,12.77
2023-11-30T07:59:01.887Z,11.20
2023-11-30T08:01:29.027Z,10.00
2023-11-30T08:03:55.886Z,11.27
2023-11-30T08:06:22.662Z,12.82
2023-11-30T08:08:49.346Z,11.88
2023-11-30T08:11:16.097Z,11.40
2023-11-30T08:13:42.810Z,12.10
2023-11-30T08:16:09.644Z,12.30
2023-11-30T08:18:36.386Z,10.38
2023-11-30T08:21:04.080Z,11.65
2023-11-30T08:23:31.385Z,13.77
2023-11-30T08:25:59.358Z,10.40
2023-11-30T08:28:26.588Z,15.15
2023-11-30T08:30:53.350Z,15.63
2023-11-30T08:33:20.207Z,17.77
2023-11-30T08:35:47.005Z,16.92
2023-11-30T08:38:13.805Z,14.95
2023-11-30T08:40:40.571Z,16.27
2023-11-30T08:43:07.333Z,13.25
2023-11-30T08:45:34.202Z,13.55
2023-11-30T08:48:00.944Z,14.75
2023-11-30T08:50:27.888Z,16.95
2023-11-30T08:52:54.652Z,11.75
2023-11-30T08:55:21.465Z,10.23
2023-11-30T08:57:48.209Z,12.00
2023-11-30T09:00:15.829Z,15.40
2023-11-30T09:02:45.297Z,14.68
2023-11-30T09:05:13.393Z,10.13
2023-11-30T09:07:40.245Z,11.95
2023-11-30T09:10:07.228Z,8.70
2023-11-30T09:12:34.187Z,10.15
2023-11-30T09:15:00.970Z,12.35
2023-11-30T09:17:30.165Z,11.20
2023-11-30T09:19:56.841Z,12.40
2023-11-30T09:22:23.573Z,14.05
2023-11-30T09:24:50.571Z,10.68
2023-11-30T09:27:17.359Z,10.25
2023-11-30T09:29:44.082Z,10.10
2023-11-30T09:32:11.241Z,9.05
2023-11-30T09:34:37.917Z,9.68
2023-11-30T09:37:05.000Z,8.75
2023-11-30T09:39:31.837Z,8.68
2023-11-30T09:42:01.168Z,9.98
2023-11-30T09:44:28.685Z,8.82
2023-11-30T09:46:55.463Z,9.82
2023-11-30T09:49:22.285Z,13.18
2023-11-30T09:51:51.594Z,10.80
2023-11-30T09:54:18.493Z,10.82
2023-11-30T09:56:45.331Z,8.95
2023-11-30T09:59:13.199Z,10.23
2023-11-30T10:01:42.537Z,8.77
2023-11-30T10:04:18.531Z,14.65
2023-11-30T10:06:48.403Z,10.40
2023-11-30T10:09:15.489Z,9.55
2023-11-30T10:11:42.343Z,11.60
2023-11-30T10:14:09.567Z,9.05
2023-11-30T10:16:36.654Z,10.52
2023-11-30T10:19:08.079Z,11.52
2023-11-30T10:21:35.523Z,11.35
2023-11-30T10:24:03.419Z,9.68
2023-11-30T10:26:34.472Z,8.07
2023-11-30T10:29:04.540Z,12.45
2023-11-30T10:31:36.644Z,10.45
2023-11-30T10:34:10.799Z,9.03
2023-11-30T10:36:40.119Z,9.60
2023-11-30T10:39:17.893Z,10.13
2023-11-30T10:41:55.174Z,11.77
2023-11-30T10:44:29.531Z,11.15
2023-11-30T10:46:57.382Z,12.65
2023-11-30T10:49:25.191Z,12.55
2023-11-30T10:51:52.808Z,10.25
2023-11-30T10:54:28.057Z,11.57
2023-11-30T10:56:54.774Z,12.07
2023-11-30T10:59:24.399Z,12.90
2023-11-30T11:01:51.455Z,12.98
2023-11-30T11:04:18.315Z,13.88
2023-11-30T11:06:45.378Z,12.90
2023-11-30T11:09:16.993Z,13.90
2023-11-30T11:11:46.794Z,17.70
2023-11-30T11:14:30.055Z,11.88
2023-11-30T11:17:04.780Z,14.15
2023-11-30T11:19:32.026Z,12.40
2023-11-30T11:21:58.759Z,12.45
2023-11-30T11:24:26.813Z,14.68
2023-11-30T11:27:00.670Z,11.40
2023-11-30T11:29:34.937Z,21.42
2023-11-30T11:32:09.086Z,23.08
2023-11-30T11:34:35.807Z,15.15
2023-11-30T11:37:02.466Z,14.73
2023-11-30T11:39:29.197Z,11.70
2023-11-30T11:41:55.918Z,16.80
2023-11-30T11:44:25.265Z,11.05
2023-11-30T11:46:53.053Z,10.02
2023-11-30T11:49:19.835Z,14.30
2023-11-30T11:51:47.131Z,10.43
2023-11-30T11:54:21.381Z,11.57
2023-11-30T11:56:49.722Z,11.20
2023-11-30T11:59:33.165Z,13.82
2023-11-30T12:04:27.661Z,10.02
2023-11-30T12:06:54.612Z,13.13
2023-11-30T12:09:21.753Z,9.50
2023-11-30T12:11:51.388Z,12.82
2023-11-30T12:14:18.340Z,10.57
2023-11-30T12:16:45.119Z,13.48
2023-11-30T12:19:11.950Z,10.55
2023-11-30T12:21:38.777Z,10.02
2023-11-30T12:24:05.681Z,9.52
2023-11-30T12:26:32.372Z,11.27
2023-11-30T12:29:02.351Z,9.70
2023-11-30T12:31:29.142Z,10.75
2023-11-30T12:33:56.708Z,11.13
2023-11-30T12:36:23.953Z,9.43
2023-11-30T12:38:52.230Z,12.07
2023-11-30T12:41:19.108Z,11.35
2023-11-30T12:43:45.873Z,12.07
2023-11-30T12:46:12.841Z,9.95
2023-11-30T12:48:39.804Z,10.00
2023-11-30T12:51:06.884Z,8.20
2023-11-30T12:53:33.655Z,13.63
2023-11-30T12:56:00.481Z,16.88
2023-11-30T12:58:27.314Z,8.27
2023-11-30T13:00:54.313Z,8.30
2023-11-30T13:03:21.884Z,8.70
2023-11-30T13:05:49.014Z,9.45
2023-11-30T13:08:15.914Z,9.25
2023-11-30T13:10:42.724Z,12.35
2023-11-30T13:13:09.545Z,10.55
2023-11-30T13:15:36.420Z,10.30
2023-11-30T13:18:03.292Z,11.60
2023-11-30T13:20:30.093Z,10.93
2023-11-30T13:22:57.529Z,10.60
2023-11-30T13:25:24.302Z,12.82
2023-11-30T13:27:51.128Z,8.10
2023-11-30T13:30:18.811Z,12.65
2023-11-30T13:32:46.454Z,8.25
2023-11-30T13:35:13.357Z,8.70
2023-11-30T13:37:41.686Z,10.85
2023-11-30T13:40:09.215Z,8.70
2023-11-30T13:42:36.128Z,10.35
2023-11-30T13:45:03.754Z,11.30
2023-11-30T13:47:30.554Z,7.47
2023-11-30T13:49:57.690Z,9.35
2023-11-30T13:52:25.038Z,10.38
2023-11-30T13:54:51.861Z,9.63
2023-11-30T13:57:19.110Z,7.90
2023-11-30T13:59:46.164Z,10.32
2023-11-30T14:02:13.028Z,9.70
2023-11-30T14:04:39.875Z,11.05
2023-11-30T14:07:06.752Z,10.80
2023-11-30T14:09:33.552Z,7.53
2023-11-30T14:12:00.387Z,10.70
2023-11-30T14:14:27.687Z,10.65
2023-11-30T14:16:54.695Z,8.70
2023-11-30T14:19:21.518Z,9.85
2023-11-30T14:21:48.261Z,9.15
2023-11-30T14:24:15.746Z,11.77
2023-11-30T14:26:42.836Z,8.18
2023-11-30T14:29:09.613Z,9.65
2023-11-30T14:31:36.488Z,7.72
2023-11-30T14:34:03.341Z,9.73
2023-11-30T14:36:31.058Z,9.60
2023-11-30T14:38:59.128Z,7.82
2023-11-30T14:41:26.285Z,10.90
2023-11-30T14:43:53.014Z,14.13
2023-11-30T14:46:19.828Z,12.00
2023-11-30T14:48:46.563Z,12.93
2023-11-30T14:51:14.710Z,13.55
2023-11-30T14:53:41.825Z,8.52
2023-11-30T14:56:09.313Z,11.85
2023-11-30T14:58:36.092Z,11.18
2023-11-30T15:01:03.139Z,12.10
2023-11-30T15:03:30.268Z,14.20
2023-11-30T15:05:57.055Z,10.93
2023-11-30T15:08:23.867Z,5.72
2023-11-30T15:10:50.686Z,6.45
2023-11-30T15:13:18.104Z,10.25
2023-11-30T15:15:46.339Z,6.80
2023-11-30T15:18:13.256Z,8.80
2023-11-30T15:20:40.367Z,7.68
2023-11-30T15:23:07.065Z,8.90
2023-11-30T15:25:34.577Z,9.70
2023-11-30T15:28:01.330Z,8.77
2023-11-30T15:30:28.013Z,9.05
2023-11-30T15:32:54.770Z,10.10
2023-11-30T15:35:21.484Z,12.77
2023-11-30T15:37:50.869Z,7.93
2023-11-30T15:40:18.614Z,7.07
2023-11-30T15:42:46.298Z,6.43
2023-11-30T15:45:14.656Z,8.43
2023-11-30T15:47:41.512Z,9.45
2023-11-30T15:50:08.754Z,6.32
2023-11-30T15:52:35.537Z,10.50
2023-11-30T15:55:02.243Z,8.02
2023-11-30T15:57:29.244Z,8.05
2023-11-30T15:59:56.025Z,7.95
2023-11-30T16:02:22.941Z,8.23
2023-11-30T16:04:49.687Z,9.05
2023-11-30T16:07:16.359Z,7.55
2023-11-30T16:09:44.929Z,7.47
2023-11-30T16:12:11.635Z,6.80
2023-11-30T16:14:38.387Z,9.13
2023-11-30T16:17:05.205Z,8.95
2023-11-30T16:19:34.595Z,8.38
2023-11-30T16:22:01.306Z,8.95
2023-11-30T16:24:28.145Z,9.27
2023-11-30T16:26:55.501Z,7.55
2023-11-30T16:29:22.797Z,10.00
2023-11-30T16:31:50.466Z,8.43
2023-11-30T16:34:19.966Z,10.23
2023-11-30T16:36:48.499Z,17.23
2023-11-30T16:39:15.666Z,29.92
2023-11-30T16:41:43.299Z,31.98
2023-11-30T16:44:09.963Z,26.08
2023-11-30T16:46:37.480Z,17.60
2023-11-30T16:49:04.380Z,16.10
2023-11-30T16:51:31.127Z,16.98
2023-11-30T16:53:58.043Z,12.00
2023-11-30T16:56:28.363Z,11.43
2023-11-30T16:58:55.527Z,13.18
2023-11-30T17:01:22.580Z,18.23
2023-11-30T17:03:49.555Z,21.30
2023-11-30T17:06:16.473Z,18.33
2023-11-30T17:08:43.200Z,12.77
2023-11-30T17:11:09.887Z,11.90
2023-11-30T17:13:36.576Z,11.90
2023-11-30T17:16:05.568Z,14.60
2023-11-30T17:18:34.062Z,17.98
2023-11-30T17:21:01.214Z,13.13
2023-11-30T17:23:28.200Z,13.60
2023-11-30T17:25:54.873Z,14.32
2023-11-30T17:28:21.538Z,14.02
2023-11-30T17:30:48.289Z,14.80
2023-11-30T17:33:15.165Z,15.77
2023-11-30T17:35:42.154Z,16.42
2023-11-30T17:38:08.919Z,16.05
2023-11-30T17:40:35.658Z,17.83
2023-11-30T17:43:02.277Z,17.25
2023-11-30T17:45:28.966Z,16.05
2023-11-30T17:47:57.028Z,19.23
2023-11-30T17:50:24.518Z,15.65
2023-11-30T17:52:51.353Z,24.15
2023-11-30T17:55:19.376Z,18.92
2023-11-30T17:57:47.106Z,13.93
2023-11-30T18:00:14.355Z,16.30
2023-11-30T18:02:41.091Z,13.90
2023-11-30T18:05:08.204Z,13.85
2023-11-30T18:07:34.934Z,22.42
2023-11-30T18:10:01.752Z,14.93
2023-11-30T18:12:28.533Z,14.02
2023-11-30T18:14:55.217Z,13.93
2023-11-30T18:17:21.971Z,16.25
2023-11-30T18:19:48.613Z,12.90
2023-11-30T18:22:15.338Z,14.82
2023-11-30T18:24:42.497Z,12.45
2023-11-30T18:27:09.297Z,14.93
2023-11-30T18:29:36.042Z,15.82
2023-11-30T18:32:04.122Z,13.70
2023-11-30T18:34:30.976Z,17.13
2023-11-30T18:36:57.986Z,14.55
2023-11-30T18:39:25.021Z,15.30
2023-11-30T18:41:53.365Z,11.88
2023-11-30T18:44:20.408Z,15.07
2023-11-30T18:46:47.738Z,20.75
2023-11-30T18:49:14.436Z,18.67
2023-11-30T18:51:41.445Z,23.17
2023-11-30T18:54:08.164Z,22.65
2023-11-30T18:56:37.444Z,21.42
2023-11-30T18:59:04.491Z,20.58
2023-11-30T19:01:31.295Z,22.70
2023-11-30T19:03:58.746Z,21.65
2023-11-30T19:06:25.716Z,27.15
2023-11-30T19:08:53.584Z,20.70
2023-11-30T19:11:22.245Z,25.08
2023-11-30T19:13:49.080Z,28.00
2023-11-30T19:16:21.928Z,24.83
2023-11-30T19:18:50.184Z,28.70
2023-11-30T19:21:17.693Z,30.42
2023-11-30T19:23:46.667Z,33.17
2023-11-30T19:26:14.142Z,28.00
2023-11-30T19:28:41.237Z,27.98
2023-11-30T19:31:08.513Z,32.75
2023-11-30T19:33:35.319Z,26.90
2023-11-30T19:36:02.154Z,29.67
2023-11-30T19:38:29.486Z,32.17
2023-11-30T19:40:57.599Z,20.73
2023-11-30T19:43:25.388Z,29.98
2023-11-30T19:45:55.000Z,29.85
2023-11-30T19:48:22.350Z,24.00
2023-11-30T19:50:49.916Z,21.88
2023-11-30T19:53:19.222Z,19.48
2023-11-30T19:55:48.098Z,18.90
2023-11-30T19:58:15.924Z,16.20
2023-11-30T20:00:44.694Z,15.35
2023-11-30T20:03:11.992Z,17.92
2023-11-30T20:05:38.961Z,17.20
2023-11-30T20:08:09.029Z,14.90
2023-11-30T20:10:37.092Z,13.15
2023-11-30T20:13:04.267Z,12.30
2023-11-30T20:15:31.645Z,12.10
2023-11-30T20:17:58.886Z,14.98
2023-11-30T20:20:25.709Z,12.93
2023-11-30T20:22:52.457Z,14.23
2023-11-30T20:25:19.229Z,14.68
2023-11-30T20:27:46.049Z,17.52
2023-11-30T20:30:13.437Z,14.65
2023-11-30T20:32:40.808Z,15.52
2023-11-30T20:35:08.555Z,17.95
2023-11-30T20:37:35.253Z,17.02
2023-11-30T20:40:02.730Z,19.10
2023-11-30T20:42:36.365Z,14.80
2023-11-30T20:45:04.768Z,21.38
2023-11-30T20:47:31.618Z,44.55
2023-11-30T20:49:58.358Z,34.30
2023-11-30T20:52:25.143Z,24.77
2023-11-30T20:54:52.136Z,18.88
2023-11-30T20:57:18.981Z,19.85
2023-11-30T20:59:45.709Z,17.27
2023-11-30T21:02:14.239Z,15.48
2023-11-30T21:04:41.084Z,13.07
2023-11-30T21:07:07.938Z,16.55
2023-11-30T21:09:34.742Z,15.20
2023-11-30T21:12:01.596Z,17.10
2023-11-30T21:14:28.571Z,16.48
2023-11-30T21:16:55.395Z,16.70
2023-11-30T21:19:22.224Z,15.95
2023-11-30T21:21:49.052Z,15.27
2023-11-30T21:24:16.337Z,13.90
2023-11-30T21:26:43.377Z,14.15
2023-11-30T21:29:10.273Z,16.10
2023-11-30T21:31:39.378Z,15.93
2023-11-30T21:34:06.646Z,14.73
2023-11-30T21:36:33.713Z,14.73
2023-11-30T21:39:01.241Z,17.50
2023-11-30T21:41:28.096Z,14.57
2023-11-30T21:43:54.934Z,17.73
2023-11-30T21:46:21.711Z,16.55
2023-11-30T21:48:48.655Z,16.77
2023-11-30T21:51:15.482Z,15.25
2023-11-30T21:53:42.189Z,17.48
2023-11-30T21:56:10.854Z,15.35
2023-11-30T21:58:38.162Z,17.05
2023-11-30T22:01:08.484Z,13.35
2023-11-30T22:03:35.487Z,16.33
2023-11-30T22:06:02.409Z,17.17
2023-11-30T22:08:29.083Z,19.50
2023-11-30T22:10:55.863Z,19.02
2023-11-30T22:13:22.649Z,14.82
2023-11-30T22:15:57.132Z,15.80
2023-11-30T22:18:30.978Z,17.10
2023-11-30T22:20:57.901Z,17.13
2023-11-30T22:23:24.893Z,22.17
2023-11-30T22:25:58.613Z,17.25
2023-11-30T22:28:30.452Z,21.98
2023-11-30T22:30:57.166Z,18.65
2023-11-30T22:33:23.926Z,19.17
2023-11-30T22:35:50.804Z,22.25
2023-11-30T22:38:17.844Z,20.40
2023-11-30T22:40:44.663Z,17.95
2023-11-30T22:43:11.399Z,15.88
2023-11-30T22:45:38.898Z,23.77
2023-11-30T22:48:05.837Z,20.55
2023-11-30T22:50:32.768Z,20.15
2023-11-30T22:52:59.727Z,20.90
2023-11-30T22:55:26.693Z,15.35
2023-11-30T22:57:54.253Z,20.13
2023-11-30T23:00:21.823Z,15.85
2023-11-30T23:02:49.370Z,19.60
2023-11-30T23:05:20.040Z,22.05
2023-11-30T23:07:46.976Z,21.45
2023-11-30T23:10:16.571Z,18.45
2023-11-30T23:12:43.655Z,19.65
2023-11-30T23:15:10.715Z,20.48
2023-11-30T23:17:37.525Z,22.00
2023-11-30T23:20:05.819Z,19.35
2023-11-30T23:22:32.694Z,16.85
2023-11-30T23:24:59.598Z,19.45
2023-11-30T23:27:26.437Z,17.42
2023-11-30T23:29:53.281Z,24.00
2023-11-30T23:32:20.105Z,21.38
2023-11-30T23:34:46.809Z,21.60
2023-11-30T23:37:13.528Z,20.90
2023-11-30T23:39:40.285Z,18.45
2023-11-30T23:42:07.074Z,21.65
2023-11-30T23:44:33.918Z,20.23
2023-11-30T23:47:00.771Z,22.80
2023-11-30T23:49:27.468Z,23.42
2023-11-30T23:51:54.375Z,20.58
2023-11-30T23:54:21.174Z,24.05
2023-11-30T23:56:48.196Z,25.10
2023-11-30T23:59:15.030Z,21.65
